Time;durP1;ratioP1;P1;durP2;ratioP2;P2;SDS_P1;SDS_P2;PMS_P1;PMS_P2;Temp;Humidity;BMP_temperature;BMP_pressure;BME280_temperature;BME280_humidity;BME280_pressure;Samples;Min_cycle;Max_cycle;Signal;HPM_P1;HPM_P2
2023/10/18 00:01:16;;;;;;;1.00;1.00;;;;;;;1.65;100.00;98273.28;4751492;30;20052;-78
2023/10/18 00:03:44;;;;;;;1.00;1.00;;;;;;;1.68;100.00;98277.38;4751287;30;20056;-78
2023/10/18 00:06:18;;;;;;;0.90;0.90;;;;;;;1.68;100.00;98269.38;4751524;30;20064;-79
2023/10/18 00:08:47;;;;;;;1.00;1.00;;;;;;;1.63;100.00;98270.00;4750957;30;20063;-78
2023/10/18 00:11:15;;;;;;;0.90;0.90;;;;;;;1.59;100.00;98274.06;4751498;30;20514;-78
2023/10/18 00:13:45;;;;;;;1.00;1.00;;;;;;;1.62;100.00;98279.00;4751061;30;20058;-78
2023/10/18 00:16:12;;;;;;;0.90;0.90;;;;;;;1.65;100.00;98281.25;4751472;30;20048;-79
2023/10/18 00:18:40;;;;;;;1.00;1.00;;;;;;;1.63;100.00;98285.97;4764615;30;20063;-78
2023/10/18 00:21:07;;;;;;;0.90;0.90;;;;;;;1.63;100.00;98277.97;4751064;30;20534;-79
2023/10/18 00:23:35;;;;;;;1.00;1.00;;;;;;;1.63;100.00;98283.28;4751092;30;20048;-79
2023/10/18 00:26:08;;;;;;;0.98;0.98;;;;;;;1.64;100.00;98281.44;4751198;30;20142;-78
2023/10/18 00:28:40;;;;;;;0.90;0.90;;;;;;;1.65;100.00;98294.56;4750944;30;20052;-80
2023/10/18 00:31:20;;;;;;;0.88;0.88;;;;;;;1.66;100.00;98284.72;4764598;30;20160;-79
2023/10/18 00:33:48;;;;;;;0.93;0.93;;;;;;;1.63;100.00;98291.28;4750722;30;20064;-78
2023/10/18 00:36:18;;;;;;;1.00;1.00;;;;;;;1.60;100.00;98286.38;4751059;30;20062;-78
2023/10/18 00:38:47;;;;;;;0.80;0.80;;;;;;;1.58;100.00;98283.09;4750772;30;20066;-78
2023/10/18 00:41:21;;;;;;;0.90;0.90;;;;;;;1.63;100.00;98291.28;4764560;30;20056;-79
2023/10/18 00:43:52;;;;;;;0.90;0.90;;;;;;;1.63;100.00;98291.28;4751059;30;20528;-79
2023/10/18 00:46:21;;;;;;;0.90;0.90;;;;;;;1.64;100.00;98289.44;4750704;30;20060;-79
2023/10/18 00:48:49;;;;;;;0.90;0.90;;;;;;;1.67;100.00;98303.16;4750598;30;20062;-78
2023/10/18 00:51:18;;;;;;;1.00;1.00;;;;;;;1.66;100.00;98298.84;4764108;30;20439;-79
2023/10/18 00:53:48;;;;;;;1.00;1.00;;;;;;;1.67;100.00;98299.66;4750500;30;20051;-79
2023/10/18 00:56:15;;;;;;;0.90;0.90;;;;;;;1.67;100.00;98289.00;4749472;30;20056;-79
2023/10/18 00:58:44;;;;;;;1.00;1.00;;;;;;;1.72;100.00;98305.19;4763903;30;20059;-79
2023/10/18 01:01:12;;;;;;;0.95;0.95;;;;;;;1.76;100.00;98295.78;4750594;30;20052;-79
2023/10/18 01:03:45;;;;;;;0.90;0.90;;;;;;;1.79;100.00;98303.34;4750275;30;20052;-79
2023/10/18 01:06:24;;;;;;;0.88;0.88;;;;;;;1.81;100.00;98303.97;4763999;30;20060;-78
2023/10/18 01:08:52;;;;;;;0.90;0.90;;;;;;;1.83;100.00;98301.09;4750612;30;20582;-79
2023/10/18 01:11:23;;;;;;;0.88;0.88;;;;;;;1.84;100.00;98306.22;4750695;30;20072;-79
2023/10/18 01:13:55;;;;;;;0.90;0.90;;;;;;;1.86;100.00;98304.16;4750344;30;20530;-78
2023/10/18 01:16:22;;;;;;;0.80;0.80;;;;;;;1.83;100.00;98301.91;4750629;30;20048;-79
2023/10/18 01:18:53;;;;;;;1.00;1.00;;;;;;;1.83;100.00;98298.44;4749844;30;20152;-79
2023/10/18 01:21:21;;;;;;;1.00;1.00;;;;;;;1.88;100.00;98303.97;4750555;30;20055;-79
2023/10/18 01:23:54;;;;;;;0.85;0.85;;;;;;;1.89;100.00;98308.25;4750435;30;20109;-79
2023/10/18 01:26:28;;;;;;;0.80;0.80;;;;;;;1.88;100.00;98310.09;4750517;30;20059;-79
2023/10/18 01:28:57;;;;;;;0.95;0.95;;;;;;;1.86;100.00;98306.00;4750501;30;20058;-79
2023/10/18 01:31:24;;;;;;;0.90;0.90;;;;;;;1.89;100.00;98308.25;4749460;30;20052;-80
2023/10/18 01:33:53;;;;;;;0.90;0.90;;;;;;;1.92;100.00;98318.47;4764204;30;20064;-79
2023/10/18 01:36:21;;;;;;;0.90;0.90;;;;;;;1.91;100.00;98309.69;4764209;30;20519;-79
2023/10/18 01:38:56;;;;;;;1.00;1.00;;;;;;;1.88;100.00;98318.09;4750721;30;20137;-79
2023/10/18 01:41:34;;;;;;;1.00;1.00;;;;;;;1.91;100.00;98311.53;4749148;30;20074;-79
2023/10/18 01:44:06;;;;;;;0.90;0.90;;;;;;;1.92;100.00;98315.81;4763494;30;20240;-79
2023/10/18 01:46:45;;;;;;;0.95;0.95;;;;;;;1.92;100.00;98318.47;4763882;30;20083;-79
2023/10/18 01:49:16;;;;;;;1.00;1.00;;;;;;;1.89;100.00;98319.72;4749113;30;20056;-76
2023/10/18 01:51:53;;;;;;;1.00;1.00;;;;;;;1.92;100.00;98310.50;4750063;30;20091;-77
2023/10/18 01:54:25;;;;;;;0.90;0.90;;;;;;;1.88;100.00;98318.09;4749208;30;20066;-78
2023/10/18 01:56:57;;;;;;;0.90;0.90;;;;;;;1.91;100.00;98315.00;4750381;30;20106;-78
2023/10/18 01:59:27;;;;;;;0.90;0.90;;;;;;;1.92;100.00;98327.31;4763701;30;20106;-79
2023/10/18 02:01:59;;;;;;;1.00;1.00;;;;;;;1.95;100.00;98326.09;4749056;30;20083;-79
2023/10/18 02:04:27;;;;;;;1.00;1.00;;;;;;;1.98;100.00;98328.31;4750130;30;20055;-79
2023/10/18 02:07:01;;;;;;;0.90;0.90;;;;;;;2.02;100.00;98326.06;4750021;30;20272;-79
2023/10/18 02:09:48;;;;;;;0.98;0.98;;;;;;;2.05;100.00;98318.50;4750260;30;20068;-78
2023/10/18 02:12:19;;;;;;;0.90;0.90;;;;;;;2.05;100.00;98329.16;4750182;30;20583;-78
2023/10/18 02:14:50;;;;;;;0.90;0.90;;;;;;;2.07;99.71;98334.25;4748951;30;20413;-79
2023/10/18 02:17:19;;;;;;;0.90;0.90;;;;;;;2.06;99.88;98333.44;4763462;30;20413;-79
2023/10/18 02:19:48;;;;;;;1.00;1.00;;;;;;;2.05;99.72;98325.63;4749706;30;20503;-79
2023/10/18 02:22:16;;;;;;;0.90;0.90;;;;;;;2.03;99.94;98323.19;4749844;30;20516;-79
2023/10/18 02:24:44;;;;;;;0.90;0.90;;;;;;;2.07;100.00;98319.09;4748155;30;20449;-79
2023/10/18 02:27:19;;;;;;;0.80;0.80;;;;;;;2.09;99.96;98332.19;4749775;30;20052;-78
2023/10/18 02:29:47;;;;;;;1.00;1.00;;;;;;;2.07;99.88;98329.72;4749716;30;20064;-79
2023/10/18 02:32:32;;;;;;;0.90;0.90;;;;;;;2.09;99.77;98333.00;4752878;30;20052;-78
2023/10/18 02:35:04;;;;;;;0.90;0.90;;;;;;;2.05;99.55;98317.66;4752812;30;20052;-79
2023/10/18 02:37:31;;;;;;;1.00;1.00;;;;;;;2.05;99.56;98330.97;4752742;30;20064;-77
2023/10/18 02:40:08;;;;;;;1.00;1.00;;;;;;;2.05;99.68;98328.31;4752820;30;20056;-78
2023/10/18 02:42:36;;;;;;;0.90;0.90;;;;;;;2.03;99.84;98331.19;4752708;30;20080;-78
2023/10/18 02:45:12;;;;;;;1.00;1.00;;;;;;;2.01;99.89;98330.56;4752710;30;20478;-79
2023/10/18 02:47:40;;;;;;;0.88;0.88;;;;;;;2.00;100.00;98326.28;4752726;30;20163;-79
2023/10/18 02:50:08;;;;;;;0.95;0.95;;;;;;;1.99;100.00;98327.28;4752678;30;20127;-79
2023/10/18 02:52:35;;;;;;;0.90;0.90;;;;;;;2.00;100.00;98334.28;4751646;30;20064;-79
2023/10/18 02:55:08;;;;;;;0.90;0.90;;;;;;;1.99;100.00;98323.81;4752910;30;20064;-79
2023/10/18 02:57:36;;;;;;;1.00;1.00;;;;;;;1.99;100.00;98332.59;4766495;30;20064;-78
2023/10/18 03:00:10;;;;;;;0.90;0.90;;;;;;;1.96;100.00;98317.06;4751011;30;20139;-77
2023/10/18 03:02:39;;;;;;;0.90;0.90;;;;;;;1.98;100.00;98335.50;4733532;30;20068;-78
2023/10/18 03:05:06;;;;;;;0.90;0.90;;;;;;;1.99;100.00;98331.81;4748449;30;20060;-78
2023/10/18 03:07:35;;;;;;;0.80;0.80;;;;;;;1.98;100.00;98327.50;4734728;30;20147;-78
2023/10/18 03:10:17;;;;;;;0.90;0.90;;;;;;;1.99;100.00;98329.94;4734910;30;20060;-78
2023/10/18 03:12:45;;;;;;;0.80;0.80;;;;;;;1.96;100.00;98327.69;4734870;30;20053;-78
2023/10/18 03:15:18;;;;;;;0.90;0.90;;;;;;;1.97;100.00;98329.31;4734608;30;20517;-79
2023/10/18 03:17:49;;;;;;;0.90;0.90;;;;;;;1.99;100.00;98331.81;4733181;30;20061;-80
2023/10/18 03:20:23;;;;;;;0.90;0.90;;;;;;;1.89;100.00;98321.56;4747934;30;20564;-79
2023/10/18 03:22:52;;;;;;;;;;;;;;;1.94;100.00;98327.91;4733637;30;20418;-79
2023/10/18 03:25:27;;;;;;;0.90;0.90;;;;;;;1.92;100.00;98329.97;4733481;30;20032;-78
2023/10/18 03:27:58;;;;;;;0.90;0.90;;;;;;;1.89;100.00;98330.34;4746120;30;20504;-79
2023/10/18 03:33:13;;;;;;;0.90;0.90;;;;;;;1.91;100.00;98330.16;4751816;30;20084;-79
2023/10/18 03:35:44;;;;;;;1.00;1.00;;;;;;;1.92;100.00;98331.78;4764719;30;20162;-79
2023/10/18 03:38:17;;;;;;;0.90;0.90;;;;;;;1.91;100.00;98338.16;4765405;30;20139;-79
2023/10/18 03:40:48;;;;;;;0.90;0.90;;;;;;;1.91;100.00;98335.50;4735734;30;20054;-79
2023/10/18 03:43:16;;;;;;;1.00;1.00;;;;;;;1.90;100.00;98331.16;4750856;30;20078;-80
2023/10/18 03:48:39;;;;;;;0.90;0.90;;;;;;;1.89;100.00;98334.88;4751491;30;20067;-79
2023/10/18 03:51:07;;;;;;;1.05;1.05;;;;;;;1.88;100.00;98342.03;4751556;30;20245;-80
2023/10/18 03:53:40;;;;;;;0.90;0.90;;;;;;;1.85;100.00;98333.63;4750075;30;20048;-79
2023/10/18 03:56:09;;;;;;;0.90;0.90;;;;;;;1.87;100.00;98323.59;4751683;30;20506;-80
2023/10/18 03:58:38;;;;;;;0.90;0.90;;;;;;;1.91;100.00;98341.63;4751478;30;20048;-80
2023/10/18 04:01:05;;;;;;;0.88;0.88;;;;;;;1.92;100.00;98342.44;4751309;30;20102;-81
2023/10/18 04:03:35;;;;;;;0.80;0.80;;;;;;;1.88;100.00;98342.03;4751404;30;20147;-80
2023/10/18 04:06:08;;;;;;;0.80;0.80;;;;;;;1.84;100.00;98338.13;4745138;30;20057;-81
2023/10/18 04:08:36;;;;;;;0.90;0.90;;;;;;;1.86;100.00;98343.25;4751261;30;20166;-81
2023/10/18 04:11:04;;;;;;;0.90;0.90;;;;;;;1.87;100.00;98348.38;4749931;30;20398;-81
2023/10/18 04:13:32;;;;;;;0.98;0.98;;;;;;;1.87;100.00;98356.34;4749893;30;20066;-82
2023/10/18 04:16:00;;;;;;;0.90;0.90;;;;;;;1.88;100.00;98355.34;4750926;30;20152;-81
2023/10/18 04:18:29;;;;;;;1.00;1.00;;;;;;;1.88;100.00;98362.50;4746971;30;20150;-80
2023/10/18 04:21:01;;;;;;;0.80;0.80;;;;;;;1.90;100.00;98360.44;4749294;30;20064;-81
2023/10/18 04:23:28;;;;;;;0.98;0.98;;;;;;;1.88;100.00;98358.00;4751230;30;20059;-81
2023/10/18 04:26:01;;;;;;;0.77;0.77;;;;;;;1.88;100.00;98365.19;4750061;30;20219;-82
2023/10/18 04:28:30;;;;;;;0.90;0.90;;;;;;;1.87;100.00;98359.00;4750168;30;20052;-82
2023/10/18 04:31:00;;;;;;;1.00;1.00;;;;;;;1.89;100.00;98364.13;4742023;30;20055;-81
2023/10/18 04:33:28;;;;;;;1.00;1.00;;;;;;;1.89;100.00;98358.81;4744290;30;20151;-81
2023/10/18 04:35:58;;;;;;;0.85;0.85;;;;;;;1.86;100.00;98360.03;4751034;30;20057;-81
2023/10/18 04:38:36;;;;;;;0.80;0.80;;;;;;;1.85;100.00;98368.22;4755675;30;20528;-79
2023/10/18 04:41:07;;;;;;;0.90;0.90;;;;;;;1.84;100.00;98363.94;4747005;30;20060;-84
2023/10/18 04:43:35;;;;;;;0.93;0.93;;;;;;;1.81;100.00;98367.00;4743574;30;20060;-81
2023/10/18 04:46:14;;;;;;;0.90;0.90;;;;;;;1.81;100.00;98373.13;4741542;30;20068;-80
2023/10/18 04:51:26;;;;;;;0.90;0.90;;;;;;;1.78;100.00;98375.41;4741361;30;20486;-81
2023/10/18 04:53:58;;;;;;;0.90;0.90;;;;;;;1.72;100.00;98375.19;4741444;30;20068;-81
2023/10/18 04:57:04;;;;;;;1.00;1.00;;;;;;;1.67;99.99;98382.13;4748169;30;20163;-79
2023/10/18 04:59:27;;;;;;;1.00;1.00;;;;;;;1.64;99.66;98388.66;4745609;29;20059;-79
2023/10/18 05:04:34;;;;;;;1.00;1.00;;;;;;;1.71;98.62;98372.72;4733886;30;20076;-79
2023/10/18 05:09:41;;;;;;;0.80;0.80;;;;;;;1.82;98.38;98392.56;4744617;30;20056;-80
2023/10/18 05:14:50;;;;;;;0.80;0.80;;;;;;;1.83;97.94;98386.25;4745663;30;20060;-79
2023/10/18 05:17:26;;;;;;;0.88;0.88;;;;;;;1.86;97.76;98391.97;4748446;30;20164;-80
2023/10/18 05:19:57;;;;;;;0.98;0.98;;;;;;;1.89;97.71;98396.06;4746721;30;20063;-81
2023/10/18 05:22:24;;;;;;;0.90;0.90;;;;;;;1.81;97.59;98385.63;4744313;30;20064;-81
2023/10/18 05:25:21;;;;;;;1.00;1.00;;;;;;;1.87;97.67;98390.94;4746357;30;20622;-78
2023/10/18 05:33:48;;;;;;;1.00;1.00;;;;;;;1.93;97.02;98390.16;4744586;30;20524;-82
2023/10/18 05:41:35;;;;;;;1.00;1.00;;;;;;;1.95;96.68;98395.28;4750490;30;20548;-81
2023/10/18 05:44:05;;;;;;;1.00;1.00;;;;;;;1.94;96.30;98391.78;4756525;30;20067;-80
2023/10/18 05:46:34;;;;;;;0.90;0.90;;;;;;;1.98;96.55;98396.72;4759808;30;20076;-81
2023/10/18 05:49:01;;;;;;;0.88;0.88;;;;;;;2.05;96.79;98394.84;4749256;30;20063;-81
2023/10/18 05:51:37;;;;;;;1.00;1.00;;;;;;;2.07;96.58;98392.81;4755031;30;20540;-80
2023/10/18 05:54:06;;;;;;;1.10;1.10;;;;;;;2.09;96.60;98396.91;4757667;30;20052;-82
2023/10/18 05:56:33;;;;;;;0.95;0.95;;;;;;;2.09;96.14;98396.91;4759090;30;20056;-81
2023/10/18 06:01:51;;;;;;;0.85;0.85;;;;;;;2.07;96.01;98398.94;4753100;30;20135;-82
2023/10/18 06:04:25;;;;;;;1.00;1.00;;;;;;;2.10;95.87;98395.88;4748238;30;20066;-80
2023/10/18 06:07:04;;;;;;;1.00;1.00;;;;;;;2.11;95.18;98399.38;4745346;30;20063;-81
2023/10/18 06:09:45;;;;;;;1.00;1.00;;;;;;;2.15;95.05;98400.56;4743283;30;21511;-79
2023/10/18 06:12:14;;;;;;;0.93;0.93;;;;;;;2.20;95.07;98405.28;4749413;30;20056;-81
2023/10/18 06:14:45;;;;;;;1.00;1.00;;;;;;;2.28;94.88;98397.09;4724977;30;20567;-80
2023/10/18 06:17:12;;;;;;;0.90;0.90;;;;;;;2.31;94.20;98405.50;4746152;30;20130;-80
2023/10/18 06:19:42;;;;;;;1.00;1.00;;;;;;;2.32;93.70;98406.31;4742103;30;20105;-82
2023/10/18 06:22:27;;;;;;;0.90;0.90;;;;;;;2.33;93.80;98399.94;4748841;30;20056;-80
2023/10/18 06:25:03;;;;;;;0.90;0.90;;;;;;;2.31;93.01;98400.19;4760380;30;20463;-82
2023/10/18 06:27:38;;;;;;;0.90;0.90;;;;;;;2.30;93.21;98403.03;4755249;30;20064;-81
2023/10/18 06:30:14;;;;;;;;;;;;;;;2.26;93.07;98401.81;4746758;30;20057;-81
2023/10/18 06:32:43;;;;;;;0.90;0.90;;;;;;;2.30;93.52;98403.84;4746022;30;20311;-81
2023/10/18 06:35:26;;;;;;;1.00;1.00;;;;;;;2.35;93.18;98404.03;4743173;30;20121;-81
2023/10/18 06:37:54;;;;;;;0.90;0.90;;;;;;;2.46;93.17;98404.47;4745769;30;20161;-82
2023/10/18 06:43:29;;;;;;;1.00;1.00;;;;;;;2.77;92.24;98393.13;4746489;30;20065;-83
2023/10/18 06:45:57;;;;;;;0.90;0.90;;;;;;;2.82;90.62;98396.00;4743997;30;20061;-83
2023/10/18 06:48:28;;;;;;;0.90;0.90;;;;;;;2.79;90.49;98397.22;4742674;30;20056;-79
2023/10/18 06:50:59;;;;;;;0.90;0.90;;;;;;;2.69;90.50;98396.03;4741276;30;20064;-81
2023/10/18 06:53:26;;;;;;;1.02;1.02;;;;;;;2.70;90.32;98401.13;4750007;30;20048;-80
2023/10/18 06:56:00;;;;;;;1.00;1.00;;;;;;;2.71;90.66;98400.13;4752029;30;20497;-83
2023/10/18 07:01:13;;;;;;;0.93;0.93;;;;;;;2.79;91.08;98399.91;4750014;30;20564;-84
2023/10/18 07:03:42;;;;;;;1.00;1.00;;;;;;;3.00;91.04;98403.31;4752704;30;20120;-83
2023/10/18 07:06:18;;;;;;;0.90;0.90;;;;;;;3.16;90.51;98402.84;4752952;30;20129;-83
2023/10/18 07:08:49;;;;;;;1.00;1.00;;;;;;;3.46;89.77;98391.63;4752112;30;20080;-84
2023/10/18 07:11:18;;;;;;;1.10;1.10;;;;;;;3.53;87.71;98391.59;4752450;30;20056;-84
2023/10/18 07:14:00;;;;;;;1.00;1.00;;;;;;;3.43;86.08;98400.88;4752152;30;20162;-83
2023/10/18 07:19:07;;;;;;;1.00;1.00;;;;;;;3.18;85.89;98391.97;4752014;30;20068;-85
2023/10/18 07:21:34;;;;;;;0.98;0.98;;;;;;;3.19;85.73;98386.44;4750688;30;20062;-83
2023/10/18 07:24:10;;;;;;;1.00;1.00;;;;;;;3.11;85.73;98394.66;4765381;30;20064;-84
2023/10/18 07:26:39;;;;;;;0.95;0.95;;;;;;;3.02;86.30;98402.06;4751643;30;20075;-83
2023/10/18 07:29:09;;;;;;;0.90;0.90;;;;;;;3.01;86.86;98405.78;4751866;30;20109;-84
2023/10/18 07:31:38;;;;;;;0.90;0.90;;;;;;;3.06;87.73;98406.97;4751831;30;20056;-84
2023/10/18 07:34:09;;;;;;;0.90;0.90;;;;;;;3.12;88.06;98412.31;4749635;30;20082;-85
2023/10/18 07:36:45;;;;;;;0.90;0.90;;;;;;;3.12;87.90;98416.81;4751600;30;20147;-83
2023/10/18 07:39:16;;;;;;;0.90;0.90;;;;;;;2.96;87.77;98413.59;4751854;30;20106;-84
2023/10/18 07:41:43;;;;;;;0.80;0.80;;;;;;;2.97;88.39;98422.41;4750356;30;20487;-84
2023/10/18 07:44:10;;;;;;;1.00;1.00;;;;;;;2.83;88.59;98424.28;4765525;30;20052;-84
2023/10/18 07:46:41;;;;;;;0.80;0.80;;;;;;;2.78;88.75;98426.75;4750361;30;20052;-84
2023/10/18 07:49:13;;;;;;;0.90;0.90;;;;;;;2.82;89.36;98430.63;4765505;30;20056;-84
2023/10/18 07:51:49;;;;;;;0.90;0.90;;;;;;;2.85;89.45;98422.22;4749534;30;20467;-84
2023/10/18 07:54:18;;;;;;;0.90;0.90;;;;;;;2.74;88.99;98425.53;4751001;30;20103;-82
2023/10/18 07:56:51;;;;;;;0.82;0.82;;;;;;;2.74;89.24;98420.22;4750884;30;20063;-84
2023/10/18 07:59:33;;;;;;;1.00;1.00;;;;;;;2.78;89.75;98419.56;4750669;30;20056;-84
2023/10/18 08:04:51;;;;;;;0.95;0.95;;;;;;;2.95;89.45;98427.94;4764238;30;20425;-84
2023/10/18 08:07:22;;;;;;;0.90;0.90;;;;;;;2.95;89.05;98429.78;4750929;30;20083;-84
2023/10/18 08:09:51;;;;;;;1.00;1.00;;;;;;;2.91;88.41;98426.72;4750744;30;20055;-84
2023/10/18 08:14:54;;;;;;;0.93;0.93;;;;;;;3.09;88.72;98430.56;4750458;30;20067;-85
2023/10/18 08:17:44;;;;;;;0.90;0.90;;;;;;;3.13;88.54;98434.44;4749616;30;20055;-83
2023/10/18 08:22:50;;;;;;;0.90;0.90;;;;;;;3.12;87.97;98428.31;4750501;30;20458;-84
2023/10/18 08:25:22;;;;;;;1.00;1.00;;;;;;;3.11;87.58;98439.16;4750278;30;20139;-85
2023/10/18 08:27:52;;;;;;;0.90;0.90;;;;;;;3.13;87.21;98423.78;4749916;30;20060;-85
2023/10/18 08:33:08;;;;;;;0.95;0.95;;;;;;;3.10;86.28;98424.22;4750716;30;20487;-85
2023/10/18 08:35:40;;;;;;;0.90;0.90;;;;;;;3.08;86.70;98423.59;4750684;30;20094;-84
2023/10/18 08:38:08;;;;;;;0.90;0.90;;;;;;;3.16;86.99;98418.03;4751163;30;20424;-84
2023/10/18 08:40:37;;;;;;;1.00;1.00;;;;;;;3.17;86.46;98420.50;4764931;30;20424;-83
2023/10/18 08:43:15;;;;;;;0.98;0.98;;;;;;;3.14;86.81;98417.41;4735426;30;20056;-85
2023/10/18 08:45:49;;;;;;;0.90;0.90;;;;;;;3.19;87.29;98425.59;4748607;30;20062;-84
2023/10/18 08:48:29;;;;;;;0.98;0.98;;;;;;;3.26;87.14;98429.06;4755157;30;20056;-86
2023/10/18 08:50:59;;;;;;;0.98;0.98;;;;;;;3.25;87.51;98422.09;4694062;30;1672775;-83
2023/10/18 08:53:31;;;;;;;1.00;1.00;;;;;;;3.29;87.62;98423.28;4750884;30;20067;-84
2023/10/18 08:55:59;;;;;;;0.90;0.90;;;;;;;3.44;87.58;98421.19;4750529;30;20141;-83
2023/10/18 08:58:30;;;;;;;0.90;0.90;;;;;;;3.59;87.54;98420.09;4749389;30;20498;-85
2023/10/18 09:03:27;;;;;;;0.90;0.90;;;;;;;3.70;87.62;98419.41;4751438;30;20056;-83
2023/10/18 09:06:04;;;;;;;0.80;0.80;;;;;;;3.65;87.19;98412.06;4751131;30;20055;-83
2023/10/18 09:08:41;;;;;;;0.93;0.93;;;;;;;3.54;87.24;98414.56;4750852;30;20125;-84
2023/10/18 09:11:21;;;;;;;1.00;1.00;;;;;;;3.49;87.84;98415.19;4749802;30;20129;-84
2023/10/18 09:14:08;;;;;;;1.00;1.00;;;;;;;3.42;88.05;98420.59;4749114;30;20059;-84
2023/10/18 09:16:41;;;;;;;0.95;0.95;;;;;;;3.32;87.73;98406.88;4736675;30;20056;-84
2023/10/18 09:19:11;;;;;;;0.90;0.90;;;;;;;3.23;87.84;98410.81;4750655;30;20056;-85
2023/10/18 09:24:23;;;;;;;1.00;1.00;;;;;;;3.41;87.84;98399.44;4763856;30;20074;-84
2023/10/18 09:26:52;;;;;;;1.00;1.00;;;;;;;3.65;87.46;98406.72;4750134;30;20560;-84
2023/10/18 09:29:20;;;;;;;1.00;1.00;;;;;;;3.76;86.53;98405.19;4750585;30;20058;-84
2023/10/18 09:31:54;;;;;;;0.90;0.90;;;;;;;3.82;86.11;98411.53;4749048;30;20052;-85
2023/10/18 09:34:23;;;;;;;0.85;0.85;;;;;;;3.91;85.76;98405.72;4750315;30;20052;-84
2023/10/18 09:36:56;;;;;;;0.90;0.90;;;;;;;4.12;85.70;98411.72;4750212;30;20064;-84
2023/10/18 09:39:37;;;;;;;0.85;0.85;;;;;;;4.13;85.50;98400.84;4749471;30;20052;-83
2023/10/18 09:42:17;;;;;;;1.00;1.00;;;;;;;4.19;85.29;98406.34;4754236;30;20080;-85
2023/10/18 09:44:44;;;;;;;0.90;0.90;;;;;;;4.08;84.24;98402.53;4755832;30;20056;-85
2023/10/18 09:47:12;;;;;;;0.90;0.90;;;;;;;4.06;84.68;98396.59;4754272;30;20064;-84
2023/10/18 09:49:42;;;;;;;0.90;0.90;;;;;;;4.11;84.53;98394.09;4753358;30;20052;-84
2023/10/18 09:52:13;;;;;;;1.00;1.00;;;;;;;4.08;84.70;98389.19;4752007;30;20060;-84
2023/10/18 09:54:50;;;;;;;0.90;0.90;;;;;;;4.18;84.14;98404.69;4751954;30;20105;-84
2023/10/18 09:57:25;;;;;;;0.90;0.90;;;;;;;4.09;83.51;98402.28;4753630;30;20063;-85
2023/10/18 09:59:57;;;;;;;0.90;0.90;;;;;;;4.05;84.07;98406.44;4753529;30;20059;-85
2023/10/18 10:02:27;;;;;;;0.90;0.90;;;;;;;4.02;84.04;98392.69;4768128;30;20103;-84
2023/10/18 10:05:02;;;;;;;0.90;0.90;;;;;;;4.08;84.23;98400.66;4750219;30;20611;-81
2023/10/18 10:07:39;;;;;;;0.90;0.90;;;;;;;4.20;84.27;98405.28;4750808;30;20157;-85
2023/10/18 10:10:08;;;;;;;0.90;0.90;;;;;;;4.24;84.19;98404.66;4745632;30;20056;-83
2023/10/18 10:12:41;;;;;;;0.90;0.90;;;;;;;4.24;84.43;98404.66;4751976;30;20076;-83
2023/10/18 10:15:15;;;;;;;0.90;0.90;;;;;;;4.20;84.10;98405.28;4734795;30;20053;-82
2023/10/18 10:17:58;;;;;;;0.90;0.90;;;;;;;4.19;84.49;98404.47;4749904;30;20121;-86
2023/10/18 10:20:33;;;;;;;0.82;0.82;;;;;;;4.26;84.34;98412.47;4752729;30;20095;-85
2023/10/18 10:23:15;;;;;;;0.90;0.90;;;;;;;4.39;83.85;98406.19;4752310;30;20516;-86
2023/10/18 10:26:16;;;;;;;0.90;0.90;;;;;;;4.47;83.43;98413.91;4749841;30;20146;-85
2023/10/18 10:31:51;;;;;;;0.90;0.90;;;;;;;4.34;82.67;98410.31;4749003;30;20069;-87
2023/10/18 10:34:32;;;;;;;0.80;0.80;;;;;;;4.26;83.14;98399.09;4749719;30;20086;-84
2023/10/18 10:37:13;;;;;;;0.90;0.90;;;;;;;4.22;83.61;98395.22;4746199;30;20145;-84
2023/10/18 10:39:49;;;;;;;0.90;0.90;;;;;;;4.32;83.76;98404.38;4743398;30;20151;-83
2023/10/18 10:42:44;;;;;;;0.90;0.90;;;;;;;4.46;83.32;98406.94;4747431;30;20060;-83
2023/10/18 10:48:15;;;;;;;0.90;0.90;;;;;;;4.48;83.46;98404.84;4742973;30;20064;-83
2023/10/18 10:50:50;;;;;;;0.80;0.80;;;;;;;4.43;83.47;98402.00;4747253;30;20064;-84
2023/10/18 10:53:32;;;;;;;0.90;0.90;;;;;;;4.41;83.60;98412.13;4747394;30;20143;-85
2023/10/18 10:56:18;;;;;;;0.80;0.80;;;;;;;4.46;83.46;98409.63;4742108;30;20067;-86
2023/10/18 10:58:55;;;;;;;0.80;0.80;;;;;;;4.50;83.21;98408.13;4760630;30;20074;-82
2023/10/18 11:04:27;;;;;;;0.88;0.88;;;;;;;4.54;83.25;98403.97;4776941;30;20048;-83
2023/10/18 11:07:45;;;;;;;0.90;0.90;;;;;;;4.56;83.43;98401.91;4776607;30;20056;-86
2023/10/18 11:09:47;;;;;;;0.90;0.90;;;;;;;4.63;83.62;98396.50;4755259;30;20060;-82
2023/10/18 11:12:23;;;;;;;0.90;0.90;;;;;;;4.76;83.92;98402.53;4745536;30;20052;-85
2023/10/18 11:14:52;;;;;;;0.90;0.90;;;;;;;4.77;83.37;98393.47;4754450;30;20061;-84
2023/10/18 11:17:23;;;;;;;0.93;0.93;;;;;;;4.70;83.73;98397.25;4754450;30;20060;-85
2023/10/18 11:19:58;;;;;;;0.90;0.90;;;;;;;4.65;83.94;98389.06;4768628;30;20056;-81
2023/10/18 11:22:31;;;;;;;0.90;0.90;;;;;;;4.67;84.71;98393.16;4737304;30;20508;-82
2023/10/18 11:25:00;;;;;;;0.90;0.90;;;;;;;4.66;85.40;98396.03;4750965;30;20467;-83
2023/10/18 11:27:36;;;;;;;0.90;0.90;;;;;;;4.66;85.61;98391.53;4750645;30;20067;-84
2023/10/18 11:30:22;;;;;;;0.90;0.90;;;;;;;4.73;86.13;98397.59;4750334;30;20063;-83
2023/10/18 11:32:54;;;;;;;0.90;0.90;;;;;;;4.64;86.32;98400.81;4749006;30;20051;-83
2023/10/18 11:35:38;;;;;;;0.90;0.90;;;;;;;4.55;86.90;98392.25;4718379;30;20495;-83
2023/10/18 11:38:13;;;;;;;0.80;0.80;;;;;;;4.64;87.39;98387.44;4735135;30;20057;-85
2023/10/18 11:40:40;;;;;;;0.82;0.82;;;;;;;4.63;87.84;98389.28;4747494;30;20060;-82
2023/10/18 11:43:08;;;;;;;0.82;0.82;;;;;;;4.56;88.28;98394.72;4734360;30;20532;-81
2023/10/18 11:45:39;;;;;;;0.90;0.90;;;;;;;4.39;88.55;98392.81;4746179;30;20067;-81
2023/10/18 11:48:14;;;;;;;0.90;0.90;;;;;;;4.28;89.43;98395.16;4749496;30;20060;-82
2023/10/18 11:50:42;;;;;;;0.90;0.90;;;;;;;4.28;89.74;98389.84;4749957;30;20052;-83
2023/10/18 11:53:14;;;;;;;0.90;0.90;;;;;;;4.27;91.05;98398.88;4746467;30;20513;-83
2023/10/18 11:56:05;;;;;;;0.90;0.90;;;;;;;4.28;91.47;98397.84;4747895;30;20082;-83
2023/10/18 11:58:35;;;;;;;0.80;0.80;;;;;;;4.25;91.91;98390.25;4747071;30;20052;-84
2023/10/18 12:01:17;;;;;;;0.90;0.90;;;;;;;4.28;91.88;98383.66;4746749;30;20147;-83
2023/10/18 12:03:48;;;;;;;1.00;1.00;;;;;;;4.44;92.01;98390.31;4760227;30;20063;-83
2023/10/18 12:06:20;;;;;;;0.90;0.90;;;;;;;4.53;92.23;98391.63;4747551;30;20081;-83
2023/10/18 12:09:42;;;;;;;0.90;0.90;;;;;;;4.62;92.19;98382.31;4748814;30;20458;-83
2023/10/18 12:11:41;;;;;;;0.90;0.90;;;;;;;4.57;91.83;98380.28;4747787;30;20064;-83
2023/10/18 12:14:09;;;;;;;0.90;0.90;;;;;;;4.43;92.27;98367.28;4754480;30;20062;-81
2023/10/18 12:16:36;;;;;;;0.80;0.80;;;;;;;4.52;92.53;98374.00;4752166;30;20060;-83
2023/10/18 12:19:06;;;;;;;0.90;0.90;;;;;;;4.41;92.25;98380.88;4749355;30;20087;-85
2023/10/18 12:21:34;;;;;;;0.85;0.85;;;;;;;4.36;92.50;98379.91;4749797;30;20146;-83
2023/10/18 12:24:04;;;;;;;0.80;0.80;;;;;;;4.37;92.83;98385.00;4765708;30;20071;-83
2023/10/18 12:26:34;;;;;;;0.90;0.90;;;;;;;4.38;93.25;98383.16;4752231;30;20201;-84
2023/10/18 12:29:15;;;;;;;0.90;0.90;;;;;;;4.41;93.43;98378.22;4760355;30;20492;-83
2023/10/18 12:31:52;;;;;;;0.90;0.90;;;;;;;4.47;93.42;98381.84;4753304;30;20488;-83
2023/10/18 12:34:28;;;;;;;0.90;0.90;;;;;;;4.47;93.11;98374.63;4750288;30;20056;-84
2023/10/18 12:36:58;;;;;;;0.90;0.90;;;;;;;4.44;93.09;98379.63;4761353;30;20164;-84
2023/10/18 12:39:25;;;;;;;0.88;0.88;;;;;;;4.38;93.02;98384.00;4752848;30;20056;-83
2023/10/18 12:41:53;;;;;;;0.90;0.90;;;;;;;4.34;93.39;98386.28;4785578;30;20055;-83
2023/10/18 12:44:25;;;;;;;0.90;0.90;;;;;;;4.31;94.07;98378.69;4784502;30;20513;-84
2023/10/18 12:46:54;;;;;;;0.90;0.90;;;;;;;4.22;94.36;98376.53;4784244;30;20051;-83
2023/10/18 12:49:22;;;;;;;0.90;0.90;;;;;;;4.13;94.90;98373.31;4784712;30;20058;-84
2023/10/18 12:51:59;;;;;;;0.88;0.88;;;;;;;4.04;95.80;98372.75;4769027;30;20125;-84
2023/10/18 12:54:36;;;;;;;0.70;0.70;;;;;;;4.06;96.48;98377.91;4784333;30;20047;-85
2023/10/18 12:57:12;;;;;;;0.90;0.90;;;;;;;4.05;96.62;98376.25;4784083;30;20059;-84
2023/10/18 13:05:11;;;;;;;0.90;0.90;;;;;;;3.95;97.25;98365.22;4785274;30;20053;-84
2023/10/18 13:07:43;;;;;;;0.80;0.80;;;;;;;3.90;97.28;98366.72;4788125;30;20096;-85
2023/10/18 13:10:14;;;;;;;0.90;0.90;;;;;;;3.95;97.62;98370.56;4786829;30;20102;-84
2023/10/18 13:12:53;;;;;;;0.80;0.80;;;;;;;3.96;97.77;98366.88;4786241;30;20058;-84